createdAt,value
2022-10-16T00:02:18.745Z,61.76
2022-10-16T00:05:20.316Z,61.55
2022-10-16T00:08:21.847Z,61.79
2022-10-16T00:11:26.706Z,61.73
2022-10-16T00:14:28.229Z,61.69
2022-10-16T00:17:30.720Z,61.84
2022-10-16T00:20:35.817Z,61.59
2022-10-16T00:23:37.853Z,61.37
2022-10-16T00:26:40.467Z,61.76
2022-10-16T00:29:41.990Z,61.33
2022-10-16T00:32:43.545Z,61.73
2022-10-16T00:35:45.316Z,61.72
2022-10-16T00:38:48.121Z,61.41
2022-10-16T00:41:50.128Z,61.72
2022-10-16T00:44:58.875Z,61.66
2022-10-16T00:48:00.517Z,61.47
2022-10-16T00:51:02.561Z,61.47
2022-10-16T00:54:07.846Z,61.74
2022-10-16T00:57:10.202Z,61.72
2022-10-16T01:00:15.860Z,61.71
2022-10-16T01:03:33.462Z,61.61
2022-10-16T01:06:59.068Z,61.68
2022-10-16T01:10:33.264Z,61.51
2022-10-16T01:13:42.425Z,61.39
2022-10-16T01:16:57.217Z,61.60
2022-10-16T01:20:07.661Z,61.39
2022-10-16T01:23:28.280Z,61.46
2022-10-16T01:27:06.877Z,61.79
2022-10-16T01:30:14.884Z,61.55
2022-10-16T01:33:25.516Z,61.65
2022-10-16T01:36:36.153Z,61.60
2022-10-16T01:39:40.920Z,61.75
2022-10-16T01:42:48.364Z,61.65
2022-10-16T01:45:50.809Z,61.65
2022-10-16T01:48:53.531Z,61.58
2022-10-16T01:55:08.893Z,61.71
2022-10-16T01:58:12.592Z,61.53
2022-10-16T02:01:18.823Z,61.53
2022-10-16T02:04:28.652Z,61.52
2022-10-16T02:07:30.228Z,61.61
2022-10-16T02:10:32.732Z,61.58
2022-10-16T02:13:46.235Z,61.69
2022-10-16T02:16:47.911Z,61.83
2022-10-16T02:19:52.180Z,61.68
2022-10-16T02:22:56.883Z,61.53
2022-10-16T02:26:00.132Z,61.46
2022-10-16T02:29:06.821Z,61.46
2022-10-16T02:32:11.352Z,61.51
2022-10-16T02:35:14.376Z,61.50
2022-10-16T02:38:17.426Z,61.58
2022-10-16T02:41:19.792Z,61.56
2022-10-16T02:44:21.384Z,61.43
2022-10-16T02:47:22.906Z,61.51
2022-10-16T02:50:26.103Z,61.55
2022-10-16T02:53:27.658Z,61.64
2022-10-16T02:56:29.272Z,61.62
2022-10-16T02:59:30.831Z,61.65
2022-10-16T03:02:32.364Z,61.64
2022-10-16T03:05:33.950Z,61.58
2022-10-16T03:08:35.615Z,61.69
2022-10-16T03:11:37.160Z,61.53
2022-10-16T03:14:38.926Z,61.73
2022-10-16T03:17:40.537Z,61.68
2022-10-16T03:20:43.322Z,61.66
2022-10-16T03:23:44.925Z,61.28
2022-10-16T03:26:46.470Z,61.53
2022-10-16T03:29:48.045Z,61.48
2022-10-16T03:32:49.565Z,61.46
2022-10-16T03:35:55.606Z,61.49
2022-10-16T03:38:57.157Z,61.50
2022-10-16T03:41:58.681Z,61.52
2022-10-16T03:45:00.184Z,61.60
2022-10-16T03:48:01.737Z,61.68
2022-10-16T03:51:03.346Z,61.48
2022-10-16T03:54:04.871Z,61.58
2022-10-16T03:57:06.413Z,61.63
2022-10-16T04:00:08.537Z,61.49
2022-10-16T04:03:10.375Z,61.51
2022-10-16T04:06:11.911Z,61.54
2022-10-16T04:09:13.453Z,61.56
2022-10-16T04:12:14.976Z,61.47
2022-10-16T04:15:16.512Z,61.59
2022-10-16T04:18:18.062Z,61.50
2022-10-16T04:21:19.577Z,61.49
2022-10-16T04:24:21.149Z,61.60
2022-10-16T04:27:22.775Z,61.64
2022-10-16T04:30:24.519Z,61.81
2022-10-16T04:33:26.045Z,61.45
2022-10-16T04:36:29.256Z,61.33
2022-10-16T04:39:31.013Z,61.49
2022-10-16T04:42:32.582Z,61.65
2022-10-16T04:45:34.132Z,61.70
2022-10-16T04:48:35.656Z,61.43
2022-10-16T04:51:37.503Z,61.63
2022-10-16T04:54:39.074Z,61.50
2022-10-16T04:57:41.505Z,61.54
2022-10-16T05:00:43.167Z,61.49
2022-10-16T05:03:44.978Z,61.43
2022-10-16T05:06:46.509Z,61.53
2022-10-16T05:09:48.024Z,61.69
2022-10-16T05:12:49.621Z,61.48
2022-10-16T05:15:51.148Z,61.49
2022-10-16T05:18:56.182Z,61.66
2022-10-16T05:22:06.018Z,61.45
2022-10-16T05:25:07.890Z,61.35
2022-10-16T05:28:09.412Z,61.63
2022-10-16T05:31:11.257Z,61.48
2022-10-16T05:34:12.863Z,61.56
2022-10-16T05:37:14.428Z,61.41
2022-10-16T05:40:17.760Z,61.50
2022-10-16T05:43:19.932Z,61.43
2022-10-16T05:46:21.979Z,61.47
2022-10-16T05:49:23.571Z,61.62
2022-10-16T05:52:25.099Z,61.52
2022-10-16T05:55:26.680Z,61.66
2022-10-16T05:58:36.886Z,61.63
2022-10-16T06:01:38.416Z,61.55
2022-10-16T06:04:40.002Z,61.47
2022-10-16T06:07:41.587Z,61.53
2022-10-16T06:10:44.901Z,61.81
2022-10-16T06:13:49.821Z,61.62
2022-10-16T06:16:51.625Z,61.53
2022-10-16T06:19:53.169Z,61.48
2022-10-16T06:22:54.701Z,61.66
2022-10-16T06:26:05.605Z,61.42
2022-10-16T06:29:07.524Z,61.73
2022-10-16T06:32:09.087Z,61.72
2022-10-16T06:35:10.623Z,61.70
2022-10-16T06:38:12.204Z,61.94
2022-10-16T06:41:16.819Z,61.69
2022-10-16T06:44:18.383Z,61.77
2022-10-16T06:47:19.898Z,61.59
2022-10-16T06:50:21.495Z,61.66
2022-10-16T06:53:23.043Z,61.87
2022-10-16T06:56:28.717Z,61.91
2022-10-16T06:59:30.728Z,61.75
2022-10-16T07:02:32.267Z,61.57
2022-10-16T07:05:39.216Z,61.83
2022-10-16T07:08:42.520Z,61.82
2022-10-16T07:11:44.533Z,61.86
2022-10-16T07:14:46.572Z,61.59
2022-10-16T07:17:48.135Z,61.93
2022-10-16T07:20:49.642Z,61.64
2022-10-16T07:23:52.220Z,61.75
2022-10-16T07:26:53.828Z,61.66
2022-10-16T07:29:55.434Z,61.54
2022-10-16T07:32:56.951Z,61.48
2022-10-16T07:35:58.816Z,61.63
2022-10-16T07:39:00.621Z,61.61
2022-10-16T07:42:02.242Z,61.77
2022-10-16T07:45:04.122Z,61.58
2022-10-16T07:48:05.688Z,61.68
2022-10-16T07:51:08.326Z,61.60
2022-10-16T07:54:11.129Z,61.66
2022-10-16T07:57:13.006Z,61.75
2022-10-16T08:00:14.981Z,61.80
2022-10-16T08:03:16.557Z,61.51
2022-10-16T08:06:21.927Z,61.51
2022-10-16T08:09:26.771Z,61.51
2022-10-16T08:12:28.345Z,61.45
2022-10-16T08:15:29.876Z,61.74
2022-10-16T08:18:31.411Z,61.56
2022-10-16T08:21:32.939Z,61.56
2022-10-16T08:24:35.826Z,61.72
2022-10-16T08:27:37.378Z,61.70
2022-10-16T08:30:39.251Z,61.76
2022-10-16T08:33:42.873Z,61.60
2022-10-16T08:36:44.455Z,61.46
2022-10-16T08:39:46.010Z,61.69
2022-10-16T08:42:53.632Z,61.57
2022-10-16T08:46:16.856Z,61.76
2022-10-16T08:49:18.989Z,61.66
2022-10-16T08:52:20.548Z,61.45
2022-10-16T08:55:52.181Z,61.82
2022-10-16T08:58:59.637Z,61.69
2022-10-16T09:02:03.225Z,61.62
2022-10-16T09:05:32.846Z,61.57
2022-10-16T09:08:46.409Z,61.33
2022-10-16T09:12:03.140Z,61.43
2022-10-16T09:15:40.474Z,61.53
2022-10-16T09:18:45.865Z,61.49
2022-10-16T09:21:49.048Z,61.27
2022-10-16T09:24:51.085Z,61.27
2022-10-16T09:27:54.628Z,61.41
2022-10-16T09:30:56.229Z,61.46
2022-10-16T09:34:07.189Z,60.98
2022-10-16T09:37:15.585Z,61.11
2022-10-16T09:40:38.312Z,61.06
2022-10-16T09:43:56.845Z,61.32
2022-10-16T09:47:13.873Z,61.05
2022-10-16T09:50:41.697Z,60.91
2022-10-16T09:53:47.777Z,61.04
2022-10-16T09:56:55.015Z,60.84
2022-10-16T09:59:59.132Z,60.70
2022-10-16T10:03:00.764Z,60.77
2022-10-16T10:06:17.471Z,60.51
2022-10-16T10:09:18.996Z,60.66
2022-10-16T10:12:27.169Z,60.26
2022-10-16T10:15:34.566Z,59.97
2022-10-16T10:18:36.283Z,60.19
2022-10-16T10:21:39.616Z,60.03
2022-10-16T10:24:41.121Z,60.21
2022-10-16T10:28:02.633Z,59.92
2022-10-16T10:31:10.186Z,59.91
2022-10-16T10:34:26.912Z,59.88
2022-10-16T10:38:04.995Z,59.87
2022-10-16T10:41:37.852Z,59.93
2022-10-16T10:44:51.316Z,59.51
2022-10-16T10:48:11.699Z,59.65
2022-10-16T10:51:22.665Z,59.64
2022-10-16T10:54:28.721Z,59.48
2022-10-16T10:57:52.087Z,59.48
2022-10-16T11:01:16.127Z,59.57
2022-10-16T11:04:36.272Z,59.39
2022-10-16T11:07:46.111Z,59.34
2022-10-16T11:10:59.113Z,59.30
2022-10-16T11:14:20.644Z,59.37
2022-10-16T11:17:31.479Z,59.04
2022-10-16T11:20:38.472Z,59.12
2022-10-16T11:24:02.320Z,58.96
2022-10-16T11:27:08.916Z,58.83
2022-10-16T11:30:21.199Z,58.71
2022-10-16T11:33:46.979Z,58.67
2022-10-16T11:37:01.233Z,58.61
2022-10-16T11:40:21.367Z,58.70
2022-10-16T11:43:29.308Z,58.72
2022-10-16T11:46:33.696Z,58.42
2022-10-16T11:49:38.796Z,58.58
2022-10-16T11:52:43.829Z,58.78
2022-10-16T11:55:47.282Z,58.48
2022-10-16T11:59:06.589Z,58.47
2022-10-16T12:02:08.041Z,58.64
2022-10-16T12:05:15.587Z,58.61
2022-10-16T12:08:18.600Z,58.24
2022-10-16T12:11:29.416Z,58.35
2022-10-16T12:14:43.021Z,58.45
2022-10-16T12:17:54.371Z,58.25
2022-10-16T12:21:05.450Z,58.57
2022-10-16T12:24:07.492Z,58.36
2022-10-16T12:27:34.268Z,58.42
2022-10-16T12:30:37.748Z,58.17
2022-10-16T12:33:58.394Z,58.04
2022-10-16T12:37:29.998Z,57.98
2022-10-16T12:40:34.271Z,57.71
2022-10-16T12:43:38.739Z,57.57
2022-10-16T12:46:41.563Z,57.85
2022-10-16T12:49:51.389Z,57.64
2022-10-16T12:52:52.979Z,57.65
2022-10-16T12:56:09.847Z,57.48
2022-10-16T12:59:17.139Z,57.25
2022-10-16T13:02:30.591Z,57.09
2022-10-16T13:05:50.524Z,56.97
2022-10-16T13:09:07.216Z,56.99
2022-10-16T13:12:51.375Z,57.11
2022-10-16T13:16:22.156Z,57.09
2022-10-16T13:22:57.512Z,56.71
2022-10-16T13:26:32.759Z,56.88
2022-10-16T13:29:35.232Z,56.80
2022-10-16T13:32:37.345Z,56.87
2022-10-16T13:35:50.410Z,56.87
2022-10-16T13:39:18.380Z,56.58
2022-10-16T13:42:28.082Z,56.42
2022-10-16T13:45:30.187Z,56.66
2022-10-16T13:48:33.359Z,56.47
2022-10-16T13:51:34.992Z,56.60
2022-10-16T13:54:36.644Z,56.34
2022-10-16T13:57:38.483Z,56.66
2022-10-16T14:00:40.794Z,56.50
2022-10-16T14:03:43.395Z,56.26
2022-10-16T14:06:47.658Z,56.23
2022-10-16T14:09:51.932Z,56.26
2022-10-16T14:13:07.669Z,56.18
2022-10-16T14:16:12.144Z,56.12
2022-10-16T14:19:20.012Z,56.51
2022-10-16T14:22:35.129Z,56.33
2022-10-16T14:25:36.928Z,56.39
2022-10-16T14:28:41.470Z,56.34
2022-10-16T14:31:44.005Z,56.23
2022-10-16T14:34:55.049Z,56.17
2022-10-16T14:37:58.833Z,56.26
2022-10-16T14:41:01.404Z,55.86
2022-10-16T14:44:05.284Z,55.98
2022-10-16T14:47:14.476Z,55.86
2022-10-16T14:50:16.021Z,55.83
2022-10-16T14:53:17.604Z,56.07
2022-10-16T14:56:25.389Z,56.09
2022-10-16T14:59:31.341Z,55.96
2022-10-16T15:02:35.259Z,55.93
2022-10-16T15:05:36.985Z,56.09
2022-10-16T15:08:39.148Z,55.93
2022-10-16T15:11:41.447Z,56.04
2022-10-16T15:14:42.962Z,55.79
2022-10-16T15:17:44.485Z,55.67
2022-10-16T15:20:46.084Z,55.89
2022-10-16T15:23:47.735Z,55.77
2022-10-16T15:26:50.278Z,55.97
2022-10-16T15:29:51.806Z,55.82
2022-10-16T15:32:53.551Z,55.74
2022-10-16T15:35:55.704Z,55.68
2022-10-16T15:38:57.932Z,55.85
2022-10-16T15:41:59.525Z,55.77
2022-10-16T15:45:01.581Z,55.64
2022-10-16T15:48:03.346Z,55.73
2022-10-16T15:51:07.012Z,55.92
2022-10-16T15:54:09.495Z,55.71
2022-10-16T15:57:11.029Z,55.75
2022-10-16T16:00:19.393Z,55.66
2022-10-16T16:03:20.937Z,55.84
2022-10-16T16:06:24.798Z,55.83
2022-10-16T16:09:26.348Z,55.69
2022-10-16T16:12:28.815Z,55.87
2022-10-16T16:15:30.607Z,56.02
2022-10-16T16:18:32.267Z,56.01
2022-10-16T16:21:34.742Z,56.00
2022-10-16T16:24:36.317Z,55.96
2022-10-16T16:27:39.545Z,55.98
2022-10-16T16:30:42.205Z,56.05
2022-10-16T16:33:43.875Z,56.24
2022-10-16T16:36:45.398Z,56.16
2022-10-16T16:39:46.934Z,56.14
2022-10-16T16:42:49.929Z,56.20
2022-10-16T16:45:51.583Z,55.98
2022-10-16T16:49:08.883Z,56.21
2022-10-16T16:52:10.515Z,56.04
2022-10-16T16:55:12.066Z,56.14
2022-10-16T16:58:13.598Z,56.21
2022-10-16T17:01:19.715Z,56.32
2022-10-16T17:04:22.011Z,56.26
2022-10-16T17:07:24.574Z,56.39
2022-10-16T17:10:26.250Z,56.11
2022-10-16T17:13:35.973Z,56.18
2022-10-16T17:16:39.116Z,56.17
2022-10-16T17:19:40.713Z,56.17
2022-10-16T17:22:42.267Z,56.17
2022-10-16T17:25:43.992Z,56.17
2022-10-16T17:28:45.906Z,56.27
2022-10-16T17:31:49.919Z,56.16
2022-10-16T17:34:51.493Z,56.18
2022-10-16T17:37:53.429Z,56.53
2022-10-16T17:40:54.957Z,56.43
2022-10-16T17:43:56.652Z,56.56
2022-10-16T17:46:58.232Z,56.21
2022-10-16T17:49:59.811Z,56.55
2022-10-16T17:53:01.356Z,56.54
2022-10-16T17:56:05.665Z,56.57
2022-10-16T17:59:07.786Z,56.27
2022-10-16T18:02:11.088Z,56.64
2022-10-16T18:05:12.691Z,56.26
2022-10-16T18:08:14.232Z,56.14
2022-10-16T18:11:15.774Z,56.32
2022-10-16T18:14:18.207Z,56.53
2022-10-16T18:17:19.812Z,56.49
2022-10-16T18:20:21.341Z,56.40
2022-10-16T18:23:23.028Z,56.48
2022-10-16T18:26:25.124Z,56.57
2022-10-16T18:29:27.698Z,56.42
2022-10-16T18:32:29.375Z,56.56
2022-10-16T18:35:30.952Z,56.41
2022-10-16T18:38:33.694Z,56.56
2022-10-16T18:41:37.340Z,56.33
2022-10-16T18:44:38.857Z,56.46
2022-10-16T18:47:40.342Z,56.73
2022-10-16T18:50:41.880Z,56.54
2022-10-16T18:53:46.297Z,56.81
2022-10-16T18:56:48.085Z,56.54
2022-10-16T18:59:49.621Z,56.46
2022-10-16T19:02:51.178Z,56.41
2022-10-16T19:05:52.833Z,56.45
2022-10-16T19:08:56.011Z,56.52
2022-10-16T19:11:59.629Z,56.47
2022-10-16T19:15:01.377Z,56.42
2022-10-16T19:18:03.134Z,56.38
2022-10-16T19:24:12.127Z,56.28
2022-10-16T19:27:13.896Z,56.46
2022-10-16T19:30:16.050Z,56.84
2022-10-16T19:33:17.635Z,56.75
2022-10-16T19:36:23.693Z,56.59
2022-10-16T19:39:25.406Z,56.73
2022-10-16T19:42:27.442Z,56.55
2022-10-16T19:45:29.142Z,56.79
2022-10-16T19:48:30.697Z,56.57
2022-10-16T19:51:32.651Z,56.65
2022-10-16T19:54:35.825Z,56.51
2022-10-16T19:57:38.127Z,56.67
2022-10-16T20:00:42.659Z,56.57
2022-10-16T20:03:46.392Z,56.95
2022-10-16T20:06:48.447Z,56.80
2022-10-16T20:09:50.312Z,56.88
2022-10-16T20:12:52.662Z,56.98
2022-10-16T20:15:54.418Z,57.07
2022-10-16T20:18:56.826Z,57.02
2022-10-16T20:21:58.426Z,56.97
2022-10-16T20:24:59.965Z,56.79
2022-10-16T20:28:01.483Z,56.75
2022-10-16T20:31:08.255Z,56.96
2022-10-16T20:34:12.294Z,56.79
2022-10-16T20:37:13.883Z,56.92
2022-10-16T20:40:15.569Z,56.71
2022-10-16T20:43:18.751Z,56.78
2022-10-16T20:46:23.580Z,56.99
2022-10-16T20:49:36.066Z,57.11
2022-10-16T20:52:41.355Z,56.97
2022-10-16T20:55:43.285Z,56.93
2022-10-16T20:58:45.616Z,56.76
2022-10-16T21:01:47.471Z,56.67
2022-10-16T21:04:49.852Z,56.72
2022-10-16T21:07:51.464Z,56.71
2022-10-16T21:10:52.993Z,56.88
2022-10-16T21:13:58.748Z,56.88
2022-10-16T21:17:01.395Z,57.07
2022-10-16T21:20:03.114Z,57.10
2022-10-16T21:23:04.733Z,57.25
2022-10-16T21:26:07.202Z,57.01
2022-10-16T21:29:08.848Z,57.11
2022-10-16T21:32:10.490Z,56.97
2022-10-16T21:35:12.053Z,57.10
2022-10-16T21:38:13.583Z,57.03
2022-10-16T21:41:23.704Z,56.90
2022-10-16T21:44:25.301Z,56.94
2022-10-16T21:47:27.348Z,57.11
2022-10-16T21:50:28.897Z,57.25
2022-10-16T21:53:30.467Z,57.52
2022-10-16T21:56:32.116Z,57.39
2022-10-16T21:59:33.667Z,57.50
2022-10-16T22:02:35.455Z,57.48
2022-10-16T22:05:36.995Z,57.54
2022-10-16T22:08:39.707Z,57.46
2022-10-16T22:11:44.026Z,57.47
2022-10-16T22:14:46.498Z,57.56
2022-10-16T22:17:47.992Z,57.20
2022-10-16T22:20:49.576Z,57.30
2022-10-16T22:23:51.141Z,57.46
2022-10-16T22:26:52.873Z,57.39
2022-10-16T22:29:54.391Z,57.40
2022-10-16T22:32:55.944Z,57.61
2022-10-16T22:36:00.173Z,57.78
2022-10-16T22:39:02.112Z,57.72
2022-10-16T22:42:03.858Z,57.83
2022-10-16T22:45:05.859Z,57.94
2022-10-16T22:48:07.424Z,58.14
2022-10-16T22:51:15.607Z,58.06
2022-10-16T22:54:18.532Z,58.07
2022-10-16T22:57:20.061Z,58.18
2022-10-16T23:00:21.755Z,58.10
2022-10-16T23:03:23.329Z,58.13
2022-10-16T23:06:25.405Z,58.14
2022-10-16T23:09:27.504Z,58.27
2022-10-16T23:15:49.535Z,58.51
2022-10-16T23:18:51.135Z,58.54
2022-10-16T23:21:52.755Z,58.61
2022-10-16T23:24:54.294Z,58.65
2022-10-16T23:27:56.185Z,58.58
2022-10-16T23:30:57.765Z,58.61
2022-10-16T23:33:59.758Z,58.56
2022-10-16T23:37:03.731Z,58.67
2022-10-16T23:40:05.707Z,58.68
2022-10-16T23:43:07.286Z,58.70
2022-10-16T23:46:10.801Z,58.65
2022-10-16T23:49:12.405Z,58.69
2022-10-16T23:52:13.981Z,58.90
2022-10-16T23:55:15.541Z,58.76
2022-10-16T23:58:17.495Z,58.84
